createdAt,value
2018-04-29T00:01:58.118Z,97381.55
2018-04-29T00:04:26.470Z,97365.38
2018-04-29T00:06:54.739Z,97343.78
2018-04-29T00:09:23.740Z,97343.13
2018-04-29T00:11:52.766Z,97338.95
2018-04-29T00:14:21.765Z,97318.56
2018-04-29T00:16:50.784Z,97280.84
2018-04-29T00:19:19.019Z,97270.18
2018-04-29T00:21:47.288Z,97276.20
2018-04-29T00:24:17.027Z,97284.84
2018-04-29T00:26:45.272Z,97282.05
2018-04-29T00:29:14.272Z,97280.71
2018-04-29T00:31:43.295Z,97274.71
2018-04-29T00:34:11.559Z,97264.03
2018-04-29T00:36:40.573Z,97264.58
2018-04-29T00:39:08.816Z,97256.30
2018-04-29T00:41:37.131Z,97239.78
2018-04-29T00:44:05.374Z,97238.31
2018-04-29T00:46:33.680Z,97253.25
2018-04-29T00:49:02.033Z,97257.36
2018-04-29T00:51:48.163Z,97288.55
2018-04-29T00:54:17.167Z,97273.11
2018-04-29T00:56:45.444Z,97260.19
2018-04-29T00:59:13.686Z,97250.16
2018-04-29T01:01:42.714Z,97245.39
2018-04-29T01:04:11.743Z,97259.77
2018-04-29T01:06:40.015Z,97268.58
2018-04-29T01:09:08.414Z,97258.73
2018-04-29T01:11:36.666Z,97214.99
2018-04-29T01:14:04.979Z,97204.73
2018-04-29T01:16:34.003Z,97190.71
2018-04-29T01:19:02.275Z,97168.73
2018-04-29T01:21:31.295Z,97166.45
2018-04-29T01:23:59.574Z,97164.06
2018-04-29T01:26:28.671Z,97165.91
2018-04-29T01:28:57.686Z,97157.39
2018-04-29T01:31:27.516Z,97168.84
2018-04-29T01:33:56.511Z,97203.08
2018-04-29T01:36:25.623Z,97223.10
2018-04-29T01:38:54.614Z,97225.91
2018-04-29T01:41:22.884Z,97218.04
2018-04-29T01:43:51.880Z,97217.78
2018-04-29T01:46:20.126Z,97214.31
2018-04-29T01:48:49.146Z,97224.19
2018-04-29T01:51:17.394Z,97212.19
2018-04-29T01:53:45.648Z,97204.20
2018-04-29T01:56:13.903Z,97200.20
2018-04-29T01:58:42.159Z,97206.04
2018-04-29T02:01:10.484Z,97197.92
2018-04-29T02:03:38.775Z,97193.25
2018-04-29T02:06:07.010Z,97187.78
2018-04-29T02:08:35.269Z,97183.52
2018-04-29T02:11:03.519Z,97181.11
2018-04-29T02:13:32.560Z,97180.04
2018-04-29T02:16:00.809Z,97185.64
2018-04-29T02:18:29.072Z,97182.97
2018-04-29T02:20:57.311Z,97170.86
2018-04-29T02:23:25.567Z,97164.81
2018-04-29T02:25:54.596Z,97159.64
2018-04-29T02:28:23.679Z,97153.66
2018-04-29T02:30:52.019Z,97141.11
2018-04-29T02:33:20.376Z,97126.59
2018-04-29T02:35:49.495Z,97128.99
2018-04-29T02:38:18.595Z,97130.45
2018-04-29T02:40:47.660Z,97152.31
2018-04-29T02:43:15.907Z,97169.24
2018-04-29T02:45:44.155Z,97176.34
2018-04-29T02:48:12.406Z,97171.92
2018-04-29T02:50:41.488Z,97157.63
2018-04-29T02:53:10.522Z,97138.56
2018-04-29T02:55:38.767Z,97130.73
2018-04-29T02:58:07.892Z,97130.05
2018-04-29T03:00:36.887Z,97125.93
2018-04-29T03:03:06.049Z,97126.84
2018-04-29T03:05:34.282Z,97123.11
2018-04-29T03:08:03.303Z,97122.56
2018-04-29T03:10:32.296Z,97123.50
2018-04-29T03:13:01.303Z,97119.48
2018-04-29T03:15:30.311Z,97111.09
2018-04-29T03:17:59.326Z,97107.87
2018-04-29T03:20:28.335Z,97101.59
2018-04-29T03:22:57.356Z,97109.44
2018-04-29T03:25:25.606Z,97111.83
2018-04-29T03:27:53.856Z,97109.03
2018-04-29T03:30:22.087Z,97106.35
2018-04-29T03:32:51.111Z,97103.31
2018-04-29T03:35:20.213Z,97107.05
2018-04-29T03:37:49.431Z,97101.06
2018-04-29T03:40:18.440Z,97094.53
2018-04-29T03:42:47.539Z,97096.03
2018-04-29T03:45:16.675Z,97093.25
2018-04-29T03:47:44.943Z,97095.66
2018-04-29T03:50:14.687Z,97095.67
2018-04-29T03:52:42.975Z,97097.67
2018-04-29T03:55:11.242Z,97100.20
2018-04-29T03:57:58.011Z,97091.25
2018-04-29T04:00:55.814Z,97087.92
2018-04-29T04:03:41.905Z,97092.75
2018-04-29T04:06:10.168Z,97091.92
2018-04-29T04:08:38.427Z,97101.79
2018-04-29T04:11:07.433Z,97101.25
2018-04-29T04:13:36.457Z,97093.91
2018-04-29T04:16:05.450Z,97093.64
2018-04-29T04:18:34.475Z,97098.06
2018-04-29T04:21:02.707Z,97098.34
2018-04-29T04:23:31.722Z,97092.48
2018-04-29T04:25:59.967Z,97096.07
2018-04-29T04:28:28.227Z,97098.86
2018-04-29T04:30:57.984Z,97097.10
2018-04-29T04:33:26.254Z,97105.13
2018-04-29T04:35:55.243Z,97095.00
2018-04-29T04:38:24.243Z,97098.72
2018-04-29T04:40:52.494Z,97093.00
2018-04-29T04:43:20.753Z,97097.81
2018-04-29T04:45:49.008Z,97097.81
2018-04-29T04:48:17.232Z,97091.93
2018-04-29T04:50:45.512Z,97083.14
2018-04-29T04:53:13.727Z,97084.73
2018-04-29T04:55:41.970Z,97085.83
2018-04-29T04:58:10.996Z,97095.67
2018-04-29T05:00:39.985Z,97096.47
2018-04-29T05:03:08.219Z,97110.75
2018-04-29T05:05:36.472Z,97121.41
2018-04-29T05:08:05.469Z,97115.79
2018-04-29T05:10:35.241Z,97116.61
2018-04-29T05:13:03.464Z,97121.40
2018-04-29T05:15:31.710Z,97117.39
2018-04-29T05:17:59.968Z,97117.52
2018-04-29T05:20:28.991Z,97120.19
2018-04-29T05:22:57.243Z,97125.52
2018-04-29T05:25:25.495Z,97115.52
2018-04-29T05:27:53.723Z,97126.39
2018-04-29T05:30:22.016Z,97120.83
2018-04-29T05:32:50.253Z,97116.85
2018-04-29T05:35:18.585Z,97116.48
2018-04-29T05:37:46.753Z,97104.50
2018-04-29T05:40:15.009Z,97103.94
2018-04-29T05:42:43.256Z,97098.25
2018-04-29T05:45:11.585Z,97104.79
2018-04-29T05:47:39.811Z,97104.92
2018-04-29T05:50:08.095Z,97105.42
2018-04-29T05:52:36.336Z,97105.98
2018-04-29T05:55:05.434Z,97104.19
2018-04-29T05:57:34.438Z,97091.95
2018-04-29T06:00:03.484Z,97087.53
2018-04-29T06:02:31.720Z,97084.16
2018-04-29T06:05:00.000Z,97085.56
2018-04-29T06:07:28.235Z,97093.09
2018-04-29T06:09:56.478Z,97085.30
2018-04-29T06:12:24.766Z,97099.75
2018-04-29T06:14:53.009Z,97092.31
2018-04-29T06:17:21.251Z,97099.34
2018-04-29T06:19:49.515Z,97095.02
2018-04-29T06:22:17.753Z,97099.03
2018-04-29T06:24:46.756Z,97085.59
2018-04-29T06:27:16.860Z,97092.25
2018-04-29T06:29:46.707Z,97092.23
2018-04-29T06:32:15.730Z,97093.09
2018-04-29T06:34:44.012Z,97088.86
2018-04-29T06:37:14.136Z,97083.63
2018-04-29T06:39:43.143Z,97086.72
2018-04-29T06:42:11.410Z,97090.19
2018-04-29T06:44:41.386Z,97091.58
2018-04-29T06:47:09.631Z,97088.17
2018-04-29T06:49:37.885Z,97082.39
2018-04-29T06:52:06.336Z,97081.77
2018-04-29T06:54:35.339Z,97084.39
2018-04-29T06:57:04.358Z,97069.17
2018-04-29T06:59:32.654Z,97070.42
2018-04-29T07:02:00.899Z,97058.27
2018-04-29T07:04:30.662Z,97053.48
2018-04-29T07:06:58.927Z,97052.91
2018-04-29T07:09:28.079Z,97062.83
2018-04-29T07:11:56.349Z,97067.58
2018-04-29T07:14:25.355Z,97061.44
2018-04-29T07:16:54.363Z,97052.23
2018-04-29T07:19:24.098Z,97057.73
2018-04-29T07:21:52.373Z,97056.02
2018-04-29T07:24:21.472Z,97062.62
2018-04-29T07:26:49.773Z,97055.28
2018-04-29T07:29:18.017Z,97053.23
2018-04-29T07:31:47.318Z,97052.28
2018-04-29T07:34:15.654Z,97058.79
2018-04-29T07:36:44.780Z,97060.14
2018-04-29T07:39:13.160Z,97062.12
2018-04-29T07:41:41.478Z,97065.88
2018-04-29T07:44:09.709Z,97064.00
2018-04-29T07:46:37.978Z,97045.40
2018-04-29T07:49:06.213Z,97039.03
2018-04-29T07:51:35.250Z,97036.11
2018-04-29T07:54:03.487Z,97025.88
2018-04-29T07:56:33.336Z,97019.39
2018-04-29T07:59:02.473Z,97019.84
2018-04-29T08:01:30.908Z,97010.50
2018-04-29T08:03:59.317Z,97012.59
2018-04-29T08:06:28.334Z,97013.70
2018-04-29T08:08:57.727Z,97020.71
2018-04-29T08:11:26.385Z,97016.75
2018-04-29T08:13:54.606Z,97016.36
2018-04-29T08:16:24.364Z,97006.58
2018-04-29T08:18:52.751Z,97002.32
2018-04-29T08:21:21.764Z,97001.55
2018-04-29T08:23:50.761Z,96999.55
2018-04-29T08:26:19.759Z,97001.26
2018-04-29T08:28:48.879Z,97001.72
2018-04-29T08:31:18.638Z,97000.41
2018-04-29T08:33:48.383Z,96995.28
2018-04-29T08:36:16.697Z,96992.41
2018-04-29T08:38:44.987Z,96990.05
2018-04-29T08:41:13.252Z,96995.98
2018-04-29T08:43:41.493Z,96999.16
2018-04-29T08:46:09.879Z,96999.33
2018-04-29T08:48:39.007Z,96993.03
2018-04-29T08:51:07.227Z,96992.10
2018-04-29T08:53:35.478Z,96991.14
2018-04-29T08:56:03.791Z,96992.22
2018-04-29T08:58:32.747Z,96997.24
2018-04-29T09:01:01.756Z,96995.44
2018-04-29T09:03:30.788Z,96985.02
2018-04-29T09:05:59.019Z,96989.67
2018-04-29T09:08:27.399Z,96990.23
2018-04-29T09:10:55.689Z,96984.06
2018-04-29T09:13:23.947Z,96983.31
2018-04-29T09:15:52.192Z,96980.69
2018-04-29T09:18:20.469Z,96983.16
2018-04-29T09:20:48.718Z,96977.53
2018-04-29T09:23:17.033Z,96989.07
2018-04-29T09:25:46.693Z,96983.32
2018-04-29T09:28:14.984Z,96978.39
2018-04-29T09:30:43.232Z,96983.67
2018-04-29T09:33:11.532Z,96984.02
2018-04-29T09:35:39.824Z,96980.65
2018-04-29T09:38:08.102Z,96976.89
2018-04-29T09:40:36.378Z,96971.21
2018-04-29T09:43:04.752Z,96967.56
2018-04-29T09:45:33.024Z,96961.31
2018-04-29T09:48:02.084Z,96960.89
2018-04-29T09:50:30.351Z,96956.22
2018-04-29T09:52:58.711Z,96959.66
2018-04-29T09:55:27.748Z,96958.73
2018-04-29T09:57:56.005Z,96939.86
2018-04-29T10:00:26.982Z,96945.52
2018-04-29T10:03:00.715Z,96942.30
2018-04-29T10:05:29.009Z,96944.47
2018-04-29T10:07:57.286Z,96953.55
2018-04-29T10:10:25.587Z,96936.80
2018-04-29T10:12:53.842Z,96942.80
2018-04-29T10:15:22.154Z,96931.84
2018-04-29T10:17:51.211Z,96925.50
2018-04-29T10:20:19.532Z,96932.98
2018-04-29T10:22:47.788Z,96928.94
2018-04-29T10:25:16.057Z,96923.98
2018-04-29T10:27:44.360Z,96920.52
2018-04-29T10:30:12.652Z,96913.50
2018-04-29T10:32:41.717Z,96905.30
2018-04-29T10:35:10.088Z,96894.09
2018-04-29T10:37:38.363Z,96898.19
2018-04-29T10:40:07.397Z,96897.87
2018-04-29T10:42:35.729Z,96887.25
2018-04-29T10:45:04.003Z,96890.05
2018-04-29T10:47:32.312Z,96886.20
2018-04-29T10:50:00.579Z,96887.25
2018-04-29T10:52:28.944Z,96878.84
2018-04-29T10:54:57.145Z,96877.77
2018-04-29T10:57:25.484Z,96865.31
2018-04-29T10:59:54.427Z,96864.02
2018-04-29T11:02:22.728Z,96865.03
2018-04-29T11:04:51.049Z,96858.55
2018-04-29T11:07:19.404Z,96855.13
2018-04-29T11:09:47.684Z,96850.14
2018-04-29T11:12:15.946Z,96850.16
2018-04-29T11:14:44.267Z,96843.88
2018-04-29T11:17:12.576Z,96839.64
2018-04-29T11:19:40.860Z,96838.11
2018-04-29T11:22:09.223Z,96839.65
2018-04-29T11:24:37.431Z,96826.92
2018-04-29T11:27:05.698Z,96819.16
2018-04-29T11:29:33.986Z,96828.82
2018-04-29T11:32:02.310Z,96817.61
2018-04-29T11:34:30.591Z,96816.54
2018-04-29T11:36:58.848Z,96812.12
2018-04-29T11:39:27.147Z,96804.04
2018-04-29T11:41:55.393Z,96813.70
2018-04-29T11:44:23.677Z,96814.02
2018-04-29T11:46:51.930Z,96802.16
2018-04-29T11:49:20.231Z,96794.06
2018-04-29T11:51:48.482Z,96790.64
2018-04-29T11:54:17.487Z,96789.00
2018-04-29T11:56:46.527Z,96782.90
2018-04-29T11:59:14.811Z,96780.40
2018-04-29T12:01:43.131Z,96779.81
2018-04-29T12:04:11.435Z,96777.01
2018-04-29T12:06:39.699Z,96777.83
2018-04-29T12:09:07.973Z,96767.72
2018-04-29T12:11:36.228Z,96771.72
2018-04-29T12:14:05.255Z,96768.14
2018-04-29T12:16:33.583Z,96764.88
2018-04-29T12:19:02.580Z,96760.78
2018-04-29T12:21:30.836Z,96758.01
2018-04-29T12:23:59.087Z,96750.09
2018-04-29T12:26:27.359Z,96743.77
2018-04-29T12:28:55.634Z,96741.80
2018-04-29T12:31:23.848Z,96735.48
2018-04-29T12:33:52.137Z,96732.95
2018-04-29T12:36:20.411Z,96729.52
2018-04-29T12:38:48.652Z,96729.28
2018-04-29T12:41:16.998Z,96712.25
2018-04-29T12:43:45.287Z,96715.87
2018-04-29T12:46:13.567Z,96710.55
2018-04-29T12:48:41.822Z,96699.51
2018-04-29T12:51:10.121Z,96701.20
2018-04-29T12:53:38.358Z,96686.75
2018-04-29T12:56:07.785Z,96674.20
2018-04-29T12:58:36.026Z,96672.38
2018-04-29T13:01:04.299Z,96663.77
2018-04-29T13:03:32.582Z,96662.34
2018-04-29T13:06:00.851Z,96650.80
2018-04-29T13:08:29.103Z,96636.54
2018-04-29T13:10:57.351Z,96635.47
2018-04-29T13:13:25.593Z,96630.59
2018-04-29T13:15:53.848Z,96625.77
2018-04-29T13:18:22.846Z,96621.81
2018-04-29T13:20:51.107Z,96623.47
2018-04-29T13:23:19.374Z,96607.92
2018-04-29T13:25:48.432Z,96598.09
2018-04-29T13:28:16.686Z,96593.21
2018-04-29T13:30:45.727Z,96582.17
2018-04-29T13:33:13.989Z,96588.62
2018-04-29T13:35:43.130Z,96580.20
2018-04-29T13:38:12.086Z,96581.09
2018-04-29T13:40:41.126Z,96568.85
2018-04-29T13:43:09.363Z,96561.05
2018-04-29T13:45:39.008Z,96561.52
2018-04-29T13:48:07.285Z,96558.27
2018-04-29T13:50:36.323Z,96552.82
2018-04-29T13:53:04.562Z,96551.31
2018-04-29T13:55:32.863Z,96527.25
2018-04-29T13:58:01.190Z,96536.89
2018-04-29T14:00:29.444Z,96534.31
2018-04-29T14:02:57.707Z,96525.54
2018-04-29T14:05:25.980Z,96525.94
2018-04-29T14:07:54.264Z,96528.09
2018-04-29T14:10:23.434Z,96512.63
2018-04-29T14:12:51.647Z,96510.84
2018-04-29T14:15:19.915Z,96504.44
2018-04-29T14:17:48.912Z,96500.87
2018-04-29T14:20:17.935Z,96498.96
2018-04-29T14:22:46.179Z,96494.05
2018-04-29T14:25:14.455Z,96488.37
2018-04-29T14:27:43.587Z,96486.45
2018-04-29T14:30:12.651Z,96492.02
2018-04-29T14:32:40.915Z,96479.38
2018-04-29T14:35:09.209Z,96476.85
2018-04-29T14:37:38.296Z,96470.59
2018-04-29T14:40:06.552Z,96463.20
2018-04-29T14:42:36.086Z,96453.81
2018-04-29T14:45:04.683Z,96454.39
2018-04-29T14:47:35.445Z,96449.12
2018-04-29T14:50:04.974Z,96448.56
2018-04-29T14:52:34.091Z,96450.69
2018-04-29T14:55:02.624Z,96447.18
2018-04-29T14:57:31.022Z,96450.84
2018-04-29T14:59:59.480Z,96432.86
2018-04-29T15:02:28.001Z,96434.08
2018-04-29T15:04:56.563Z,96420.38
2018-04-29T15:07:24.869Z,96418.44
2018-04-29T15:09:55.384Z,96426.69
2018-04-29T15:12:24.191Z,96412.98
2018-04-29T15:14:54.109Z,96419.65
2018-04-29T15:17:23.504Z,96402.22
2018-04-29T15:19:52.005Z,96399.18
2018-04-29T15:22:21.147Z,96400.71
2018-04-29T15:24:50.394Z,96395.27
2018-04-29T15:27:18.879Z,96390.62
2018-04-29T15:29:47.197Z,96387.77
2018-04-29T15:32:15.594Z,96377.61
2018-04-29T15:34:44.066Z,96364.16
2018-04-29T15:37:13.621Z,96359.74
2018-04-29T15:39:43.078Z,96347.74
2018-04-29T15:42:11.622Z,96345.97
2018-04-29T15:44:40.929Z,96348.73
2018-04-29T15:47:09.450Z,96349.52
2018-04-29T15:49:37.910Z,96340.13
2018-04-29T15:52:06.388Z,96332.73
2018-04-29T15:54:34.957Z,96328.82
2018-04-29T15:57:03.354Z,96318.63
2018-04-29T15:59:31.898Z,96320.77
2018-04-29T16:02:00.427Z,96304.58
2018-04-29T16:04:29.834Z,96302.48
2018-04-29T16:06:59.062Z,96296.59
2018-04-29T16:09:29.451Z,96293.66
2018-04-29T16:11:57.965Z,96286.66
2018-04-29T16:14:30.316Z,96286.25
2018-04-29T16:16:58.911Z,96279.79
2018-04-29T16:19:27.213Z,96285.27
2018-04-29T16:21:55.804Z,96289.36
2018-04-29T16:24:24.416Z,96279.42
2018-04-29T16:26:53.062Z,96270.64
2018-04-29T16:29:21.611Z,96269.06
2018-04-29T16:31:50.085Z,96266.80
2018-04-29T16:34:18.355Z,96262.50
2018-04-29T16:36:47.452Z,96259.77
2018-04-29T16:39:16.719Z,96249.98
2018-04-29T16:41:46.156Z,96246.06
2018-04-29T16:44:15.299Z,96252.27
2018-04-29T16:46:44.522Z,96246.13
2018-04-29T16:49:12.937Z,96233.25
2018-04-29T16:51:42.168Z,96235.69
2018-04-29T16:54:11.361Z,96233.81
2018-04-29T16:56:40.890Z,96230.92
2018-04-29T16:59:09.514Z,96220.20
2018-04-29T17:01:38.823Z,96219.33
2018-04-29T17:04:07.668Z,96218.73
2018-04-29T17:06:38.010Z,96212.02
2018-04-29T17:09:06.507Z,96221.63
2018-04-29T17:11:35.012Z,96217.57
2018-04-29T17:14:03.737Z,96203.72
2018-04-29T17:16:33.161Z,96204.09
2018-04-29T17:19:01.688Z,96210.14
2018-04-29T17:21:30.949Z,96203.33
2018-04-29T17:23:59.505Z,96203.13
2018-04-29T17:26:28.005Z,96207.56
2018-04-29T17:28:58.480Z,96203.02
2018-04-29T17:31:27.980Z,96199.88
2018-04-29T17:33:56.714Z,96204.28
2018-04-29T17:36:26.142Z,96203.11
2018-04-29T17:38:55.155Z,96188.02
2018-04-29T17:41:24.359Z,96179.17
2018-04-29T17:43:52.893Z,96174.24
2018-04-29T17:46:21.304Z,96180.55
2018-04-29T17:48:49.594Z,96176.33
2018-04-29T17:51:17.843Z,96168.90
2018-04-29T17:53:46.884Z,96164.97
2018-04-29T17:56:15.264Z,96162.13
2018-04-29T17:58:43.563Z,96161.94
2018-04-29T18:01:11.825Z,96159.08
2018-04-29T18:03:40.856Z,96156.18
2018-04-29T18:06:09.127Z,96155.04
2018-04-29T18:08:38.151Z,96156.06
2018-04-29T18:11:06.417Z,96151.69
2018-04-29T18:13:35.453Z,96138.81
2018-04-29T18:16:03.751Z,96142.89
2018-04-29T18:18:32.082Z,96137.25
2018-04-29T18:21:01.857Z,96136.21
2018-04-29T18:23:30.152Z,96135.28
2018-04-29T18:25:58.397Z,96133.20
2018-04-29T18:28:26.670Z,96126.20
2018-04-29T18:30:54.919Z,96128.52
2018-04-29T18:33:23.216Z,96151.27
2018-04-29T18:35:51.460Z,96130.34
2018-04-29T18:38:21.095Z,96121.41
2018-04-29T18:40:50.123Z,96125.86
2018-04-29T18:43:18.407Z,96122.05
2018-04-29T18:45:46.716Z,96120.52
2018-04-29T18:48:15.060Z,96122.54
2018-04-29T18:50:43.545Z,96120.48
2018-04-29T18:53:11.603Z,96112.11
2018-04-29T18:55:39.904Z,96116.96
2018-04-29T18:58:08.182Z,96112.63
2018-04-29T19:00:37.228Z,96113.36
2018-04-29T19:03:06.254Z,96112.16
2018-04-29T19:08:39.101Z,96108.66
2018-04-29T19:11:08.149Z,96111.69
2018-04-29T19:13:36.427Z,96108.22
2018-04-29T19:16:04.736Z,96102.77
2018-04-29T19:18:33.012Z,96100.60
2018-04-29T19:21:01.252Z,96103.61
2018-04-29T19:23:29.562Z,96101.27
2018-04-29T19:25:57.807Z,96102.09
2018-04-29T19:28:27.260Z,96103.31
2018-04-29T19:30:56.225Z,96094.08
2018-04-29T19:33:25.238Z,96100.37
2018-04-29T19:35:54.281Z,96098.29
2018-04-29T19:38:22.549Z,96092.80
2018-04-29T19:40:51.558Z,96098.01
2018-04-29T19:43:19.863Z,96095.45
2018-04-29T19:45:48.165Z,96094.48
2018-04-29T19:48:17.163Z,96079.74
2018-04-29T19:50:45.454Z,96080.19
2018-04-29T19:53:13.698Z,96073.38
2018-04-29T19:55:42.779Z,96058.21
2018-04-29T19:58:11.051Z,96055.11
2018-04-29T20:00:39.335Z,96056.82
2018-04-29T20:03:07.672Z,96056.77
2018-04-29T20:05:35.955Z,96047.65
2018-04-29T20:08:04.187Z,96050.63
2018-04-29T20:10:32.463Z,96047.43
2018-04-29T20:13:00.710Z,96047.78
2018-04-29T20:15:28.993Z,96039.58
2018-04-29T20:17:57.245Z,96036.89
2018-04-29T20:20:25.493Z,96030.15
2018-04-29T20:22:53.768Z,96028.42
2018-04-29T20:25:22.031Z,96023.61
2018-04-29T20:27:50.272Z,96019.41
2018-04-29T20:30:18.539Z,96024.23
2018-04-29T20:32:48.614Z,96025.88
2018-04-29T20:35:16.895Z,96013.74
2018-04-29T20:37:45.158Z,96010.77
2018-04-29T20:40:14.294Z,96014.02
2018-04-29T20:42:44.426Z,96014.09
2018-04-29T20:45:13.438Z,96013.25
2018-04-29T20:47:41.675Z,96015.28
2018-04-29T20:50:10.017Z,96008.33
2018-04-29T20:52:38.288Z,96006.56
2018-04-29T20:55:07.314Z,96008.72
2018-04-29T20:57:35.580Z,96006.47
2018-04-29T21:00:04.691Z,96009.20
2018-04-29T21:02:33.728Z,96006.67
2018-04-29T21:05:02.003Z,96003.89
2018-04-29T21:07:30.251Z,96007.60
2018-04-29T21:09:58.516Z,96004.14
2018-04-29T21:12:26.772Z,96000.02
2018-04-29T21:14:55.024Z,95996.06
2018-04-29T21:17:23.339Z,96003.17
2018-04-29T21:19:51.543Z,96005.80
2018-04-29T21:22:19.785Z,95998.86
2018-04-29T21:24:48.021Z,96010.75
2018-04-29T21:27:16.513Z,96003.14
2018-04-29T21:29:44.794Z,96006.02
2018-04-29T21:32:13.039Z,96000.79
2018-04-29T21:34:42.833Z,96003.95
2018-04-29T21:37:11.078Z,96006.15
2018-04-29T21:39:40.103Z,96003.84
2018-04-29T21:42:08.364Z,96009.33
2018-04-29T21:44:37.427Z,96005.47
2018-04-29T21:47:05.688Z,96017.77
2018-04-29T21:49:33.966Z,96016.39
2018-04-29T21:52:02.242Z,96016.16
2018-04-29T21:54:31.225Z,96010.83
2018-04-29T21:57:00.659Z,96016.08
2018-04-29T21:59:28.878Z,96019.97
2018-04-29T22:01:57.144Z,96018.05
2018-04-29T22:04:26.150Z,96025.63
2018-04-29T22:06:55.260Z,96024.25
2018-04-29T22:09:24.267Z,96023.70
2018-04-29T22:11:53.287Z,96024.84
2018-04-29T22:14:21.521Z,96018.53
2018-04-29T22:16:49.849Z,96019.72
2018-04-29T22:19:18.855Z,96022.58
2018-04-29T22:21:47.170Z,96020.53
2018-04-29T22:24:15.408Z,96027.73
2018-04-29T22:26:43.678Z,96019.70
2018-04-29T22:29:12.034Z,96015.41
2018-04-29T22:31:40.386Z,96026.84
2018-04-29T22:34:09.320Z,96022.63
2018-04-29T22:36:37.596Z,96031.10
2018-04-29T22:39:06.610Z,96029.42
2018-04-29T22:41:35.679Z,96030.70
2018-04-29T22:44:03.919Z,96038.52
2018-04-29T22:46:32.183Z,96042.72
2018-04-29T22:49:01.300Z,96041.03
2018-04-29T22:51:30.419Z,96044.58
2018-04-29T22:53:59.414Z,96052.57
2018-04-29T22:56:28.810Z,96041.37
2018-04-29T22:58:57.072Z,96048.27
2018-04-29T23:01:25.324Z,96052.91
2018-04-29T23:03:53.709Z,96046.64
2018-04-29T23:06:22.804Z,96048.70
2018-04-29T23:08:51.822Z,96052.39
2018-04-29T23:11:20.887Z,96065.23
2018-04-29T23:13:49.123Z,96063.80
2018-04-29T23:16:17.395Z,96078.89
2018-04-29T23:18:46.396Z,96094.97
2018-04-29T23:21:14.647Z,96131.39
2018-04-29T23:23:42.994Z,96128.80
2018-04-29T23:26:12.045Z,96136.51
2018-04-29T23:28:40.331Z,96142.06
2018-04-29T23:31:08.654Z,96159.64
2018-04-29T23:33:36.895Z,96167.69
2018-04-29T23:36:05.157Z,96170.81
2018-04-29T23:38:34.155Z,96161.70
2018-04-29T23:41:03.165Z,96161.27
2018-04-29T23:43:32.200Z,96168.33
2018-04-29T23:46:00.454Z,96182.96
2018-04-29T23:48:29.492Z,96186.13
2018-04-29T23:50:57.747Z,96191.72
2018-04-29T23:53:26.776Z,96187.11
2018-04-29T23:55:55.022Z,96202.75
2018-04-29T23:58:23.334Z,96203.50
